createdAt,value
2022-12-23T00:00:10.359Z,138.05
2022-12-23T00:02:37.079Z,63.53
2022-12-23T00:05:05.064Z,107.38
2022-12-23T00:07:32.074Z,63.08
2022-12-23T00:09:58.819Z,68.63
2022-12-23T00:12:43.925Z,71.82
2022-12-23T00:15:11.870Z,136.88
2022-12-23T00:17:42.758Z,89.60
2022-12-23T00:20:11.375Z,64.82
2022-12-23T00:22:56.642Z,141.77
2022-12-23T00:25:41.773Z,77.65
2022-12-23T00:28:19.692Z,148.75
2022-12-23T00:30:46.877Z,82.43
2022-12-23T00:33:15.623Z,153.50
2022-12-23T00:35:43.516Z,76.63
2022-12-23T00:38:09.996Z,76.47
2022-12-23T00:40:55.057Z,158.23
2022-12-23T00:43:22.234Z,67.78
2022-12-23T00:45:48.773Z,71.30
2022-12-23T00:48:33.973Z,103.10
2022-12-23T00:51:00.423Z,94.40
2022-12-23T00:53:26.989Z,118.03
2022-12-23T00:55:53.576Z,109.25
2022-12-23T00:58:20.903Z,83.88
2022-12-23T01:01:06.615Z,231.07
2022-12-23T01:03:51.752Z,362.05
2022-12-23T01:06:18.291Z,266.40
2022-12-23T01:08:44.788Z,63.33
2022-12-23T01:11:11.897Z,314.15
2022-12-23T01:13:39.259Z,256.65
2022-12-23T01:16:16.942Z,212.75
2022-12-23T01:18:44.971Z,259.52
2022-12-23T01:21:13.432Z,157.02
2022-12-23T01:23:39.990Z,239.05
2022-12-23T01:26:07.731Z,261.73
2022-12-23T01:28:35.188Z,137.75
2022-12-23T01:31:04.503Z,354.45
2022-12-23T01:33:32.329Z,190.02
2022-12-23T01:36:02.956Z,151.38
2022-12-23T01:38:30.192Z,163.10
2022-12-23T01:40:56.775Z,174.00
2022-12-23T01:43:47.574Z,142.95
2022-12-23T01:46:14.341Z,114.03
2022-12-23T01:48:44.413Z,63.83
2022-12-23T01:51:21.682Z,96.97
2022-12-23T01:53:52.331Z,58.78
2022-12-23T01:56:32.692Z,92.28
2022-12-23T01:59:32.320Z,65.30
2022-12-23T02:02:17.267Z,80.65
2022-12-23T02:04:44.152Z,55.17
2022-12-23T02:07:29.770Z,57.17
2022-12-23T02:09:56.313Z,63.20
2022-12-23T02:12:39.958Z,85.38
2022-12-23T02:15:50.599Z,79.55
2022-12-23T02:18:59.054Z,66.85
2022-12-23T02:21:43.143Z,76.38
2022-12-23T02:24:37.682Z,77.53
2022-12-23T02:27:16.836Z,125.88
2022-12-23T02:30:05.855Z,68.05
2022-12-23T02:32:58.111Z,50.35
2022-12-23T02:35:37.747Z,65.63
2022-12-23T02:38:12.649Z,52.65
2022-12-23T02:40:47.635Z,78.63
2022-12-23T02:43:35.485Z,61.75
2022-12-23T02:46:12.780Z,85.07
2022-12-23T02:49:03.368Z,72.95
2022-12-23T02:54:04.105Z,67.15
2022-12-23T02:56:33.285Z,58.28
2022-12-23T02:59:10.286Z,63.50
2022-12-23T03:01:38.131Z,61.42
2022-12-23T03:04:06.750Z,82.68
2022-12-23T03:06:39.415Z,56.95
2022-12-23T03:09:06.827Z,93.53
2022-12-23T03:11:40.052Z,89.05
2022-12-23T03:14:34.150Z,84.85
2022-12-23T03:17:14.762Z,67.15
2022-12-23T03:20:14.649Z,79.47
2022-12-23T03:22:51.693Z,73.47
2022-12-23T03:25:33.836Z,46.03
2022-12-23T03:28:20.614Z,226.63
2022-12-23T03:30:52.156Z,63.25
2022-12-23T03:33:33.816Z,212.77
2022-12-23T03:36:10.326Z,262.40
2022-12-23T03:38:39.431Z,60.03
2022-12-23T03:41:11.400Z,135.15
2022-12-23T03:43:50.724Z,157.95
2022-12-23T03:46:25.478Z,113.65
2022-12-23T03:48:55.324Z,117.75
2022-12-23T03:51:27.908Z,100.20
2022-12-23T03:54:05.841Z,69.53
2022-12-23T03:56:36.327Z,116.57
2022-12-23T03:59:11.420Z,109.82
2022-12-23T04:02:13.784Z,103.82
2022-12-23T04:04:53.434Z,59.58
2022-12-23T04:07:27.781Z,232.77
2022-12-23T04:09:54.578Z,122.22
2022-12-23T04:12:25.748Z,42.78
2022-12-23T04:14:52.464Z,178.82
2022-12-23T04:17:19.513Z,254.15
2022-12-23T04:19:46.449Z,119.72
2022-12-23T04:22:13.937Z,140.52
2022-12-23T04:24:40.565Z,158.20
2022-12-23T04:27:07.926Z,119.90
2022-12-23T04:29:34.442Z,111.57
2022-12-23T04:32:00.893Z,80.82
2022-12-23T04:34:27.419Z,127.25
2022-12-23T04:36:56.714Z,77.18
2022-12-23T04:39:23.206Z,111.80
2022-12-23T04:41:49.710Z,70.47
2022-12-23T04:44:16.311Z,147.35
2022-12-23T04:46:42.887Z,83.18
2022-12-23T04:49:09.465Z,139.15
2022-12-23T04:51:35.965Z,125.05
2022-12-23T04:54:02.669Z,90.57
2022-12-23T04:56:29.107Z,111.55
2022-12-23T04:58:55.629Z,61.65
2022-12-23T05:01:22.137Z,124.18
2022-12-23T05:03:48.597Z,123.90
2022-12-23T05:06:15.036Z,94.47
2022-12-23T05:08:41.494Z,164.40
2022-12-23T05:11:07.965Z,73.95
2022-12-23T05:13:34.469Z,100.47
2022-12-23T05:16:00.999Z,140.40
2022-12-23T05:18:27.546Z,127.47
2022-12-23T05:20:54.418Z,130.40
2022-12-23T05:23:20.905Z,214.30
2022-12-23T05:25:52.700Z,41.17
2022-12-23T05:28:19.807Z,141.70
2022-12-23T05:30:46.252Z,260.90
2022-12-23T05:33:12.741Z,133.90
2022-12-23T05:35:39.206Z,122.40
2022-12-23T05:38:06.132Z,267.77
2022-12-23T05:40:33.134Z,86.93
2022-12-23T05:43:00.568Z,91.95
2022-12-23T05:45:27.264Z,49.83
2022-12-23T05:47:53.821Z,78.35
2022-12-23T05:50:20.358Z,160.20
2022-12-23T05:52:46.847Z,228.77
2022-12-23T05:55:13.351Z,44.47
2022-12-23T05:57:39.907Z,185.80
2022-12-23T06:00:08.243Z,77.22
2022-12-23T06:02:34.901Z,100.55
2022-12-23T06:05:01.537Z,91.45
2022-12-23T06:07:28.011Z,119.22
2022-12-23T06:09:54.455Z,97.75
2022-12-23T06:12:20.907Z,93.95
2022-12-23T06:14:47.393Z,148.38
2022-12-23T06:17:13.867Z,147.02
2022-12-23T06:19:40.328Z,115.70
2022-12-23T06:22:06.775Z,153.10
2022-12-23T06:24:33.240Z,73.78
2022-12-23T06:26:59.718Z,86.65
2022-12-23T06:29:26.175Z,111.63
2022-12-23T06:31:52.753Z,109.10
2022-12-23T06:34:19.438Z,42.42
2022-12-23T06:36:46.705Z,80.05
2022-12-23T06:39:13.295Z,89.32
2022-12-23T06:41:39.839Z,57.40
2022-12-23T06:44:06.835Z,56.70
2022-12-23T06:46:33.454Z,52.70
2022-12-23T06:49:00.051Z,49.53
2022-12-23T06:51:26.481Z,59.53
2022-12-23T06:53:52.932Z,55.85
2022-12-23T06:56:19.678Z,67.63
2022-12-23T06:58:46.190Z,154.75
2022-12-23T07:01:13.343Z,137.07
2022-12-23T07:03:39.894Z,132.57
2022-12-23T07:06:06.707Z,75.57
2022-12-23T07:08:33.161Z,135.00
2022-12-23T07:11:00.917Z,65.30
2022-12-23T07:13:27.683Z,94.65
2022-12-23T07:15:54.322Z,71.57
2022-12-23T07:18:22.903Z,70.47
2022-12-23T07:20:50.297Z,74.35
2022-12-23T07:23:16.949Z,56.90
2022-12-23T07:25:43.855Z,59.33
2022-12-23T07:28:10.366Z,129.93
2022-12-23T07:30:36.897Z,65.28
2022-12-23T07:33:03.355Z,69.97
2022-12-23T07:35:29.964Z,225.98
2022-12-23T07:37:56.551Z,262.92
2022-12-23T07:40:23.969Z,74.68
2022-12-23T07:42:53.701Z,59.67
2022-12-23T07:45:20.284Z,53.13
2022-12-23T07:47:46.758Z,119.47
2022-12-23T07:50:13.743Z,100.97
2022-12-23T07:52:40.225Z,162.73
2022-12-23T07:55:06.850Z,171.20
2022-12-23T07:57:37.888Z,74.22
2022-12-23T08:00:08.869Z,97.90
2022-12-23T08:02:35.675Z,198.55
2022-12-23T08:05:02.374Z,104.38
2022-12-23T08:07:28.906Z,66.45
2022-12-23T08:09:55.362Z,156.40
2022-12-23T08:12:21.816Z,120.85
2022-12-23T08:14:49.063Z,139.52
2022-12-23T08:17:15.567Z,236.70
2022-12-23T08:19:42.075Z,374.40
2022-12-23T08:22:08.540Z,244.70
2022-12-23T08:24:35.016Z,311.75
2022-12-23T08:27:01.672Z,331.17
2022-12-23T08:29:32.623Z,342.58
2022-12-23T08:32:02.785Z,339.42
2022-12-23T08:34:29.253Z,374.38
2022-12-23T08:36:55.828Z,287.20
2022-12-23T08:39:22.594Z,341.75
2022-12-23T08:42:00.636Z,169.23
2022-12-23T08:45:10.859Z,235.40
2022-12-23T08:50:50.454Z,302.10
2022-12-23T08:53:19.164Z,212.27
2022-12-23T08:55:50.792Z,263.58
2022-12-23T09:03:45.498Z,240.70
2022-12-23T09:06:37.475Z,210.85
2022-12-23T09:09:05.170Z,146.95
2022-12-23T09:11:31.866Z,230.93
2022-12-23T09:14:00.333Z,259.50
2022-12-23T09:16:28.293Z,197.38
2022-12-23T09:18:54.922Z,164.95
2022-12-23T09:21:23.139Z,168.38
2022-12-23T09:23:49.959Z,254.55
2022-12-23T09:26:23.134Z,204.10
2022-12-23T09:28:50.061Z,165.85
2022-12-23T09:31:16.890Z,195.82
2022-12-23T09:33:46.886Z,222.63
2022-12-23T09:36:13.402Z,171.70
2022-12-23T09:38:39.881Z,138.38
2022-12-23T09:41:27.448Z,165.50
2022-12-23T09:44:24.755Z,128.52
2022-12-23T09:46:57.071Z,169.43
2022-12-23T09:49:24.008Z,112.35
2022-12-23T09:51:55.681Z,98.43
2022-12-23T09:54:31.375Z,110.82
2022-12-23T09:57:04.028Z,68.65
2022-12-23T10:00:04.130Z,70.60
2022-12-23T10:02:30.662Z,70.50
2022-12-23T10:05:06.959Z,46.88
2022-12-23T10:07:54.974Z,38.33
2022-12-23T10:10:37.022Z,53.85
2022-12-23T10:13:06.605Z,40.42
2022-12-23T10:15:37.949Z,43.97
2022-12-23T10:18:24.578Z,40.70
2022-12-23T10:21:01.590Z,47.42
2022-12-23T10:23:39.852Z,43.58
2022-12-23T10:26:47.445Z,50.05
2022-12-23T10:29:25.576Z,26.85
2022-12-23T10:32:17.154Z,38.40
2022-12-23T10:34:46.700Z,38.15
2022-12-23T10:37:28.398Z,40.50
2022-12-23T10:40:39.516Z,43.25
2022-12-23T10:43:31.949Z,33.28
2022-12-23T10:46:23.100Z,24.10
2022-12-23T10:49:09.463Z,36.38
2022-12-23T10:51:49.462Z,30.70
2022-12-23T10:54:36.248Z,26.33
2022-12-23T10:57:05.876Z,25.23
2022-12-23T10:59:34.350Z,31.90
2022-12-23T11:02:34.681Z,42.78
2022-12-23T11:05:01.306Z,26.00
2022-12-23T11:07:45.948Z,25.25
2022-12-23T11:10:20.800Z,26.45
2022-12-23T11:12:50.926Z,32.17
2022-12-23T11:15:41.380Z,25.25
2022-12-23T11:18:19.512Z,23.50
2022-12-23T11:21:02.600Z,27.45
2022-12-23T11:23:31.887Z,26.95
2022-12-23T11:26:02.851Z,26.30
2022-12-23T11:28:31.135Z,21.63
2022-12-23T11:31:05.434Z,28.02
2022-12-23T11:33:57.944Z,23.08
2022-12-23T11:36:27.793Z,26.70
2022-12-23T11:39:03.405Z,26.27
2022-12-23T11:41:44.166Z,27.15
2022-12-23T11:44:21.776Z,24.30
2022-12-23T11:46:49.364Z,28.60
2022-12-23T11:49:20.796Z,29.55
2022-12-23T11:52:07.956Z,26.90
2022-12-23T11:54:34.625Z,29.35
2022-12-23T11:57:06.015Z,24.92
2022-12-23T11:59:40.225Z,26.17
2022-12-23T12:02:31.424Z,29.88
2022-12-23T12:05:01.943Z,24.58
2022-12-23T12:07:30.313Z,32.13
2022-12-23T12:10:03.673Z,26.85
2022-12-23T12:12:30.542Z,26.80
2022-12-23T12:14:59.432Z,29.63
2022-12-23T12:17:33.501Z,27.92
2022-12-23T12:20:14.665Z,28.90
2022-12-23T12:22:46.656Z,27.92
2022-12-23T12:25:21.299Z,26.98
2022-12-23T12:27:58.159Z,26.50
2022-12-23T12:30:34.390Z,24.30
2022-12-23T12:33:19.325Z,22.17
2022-12-23T12:36:12.796Z,20.23
2022-12-23T12:38:40.059Z,21.55
2022-12-23T12:41:28.116Z,21.58
2022-12-23T12:44:26.109Z,21.45
2022-12-23T12:47:28.105Z,21.98
2022-12-23T12:50:20.214Z,19.85
2022-12-23T12:52:46.804Z,23.05
2022-12-23T12:55:30.066Z,20.73
2022-12-23T12:57:56.741Z,22.25
2022-12-23T13:00:24.713Z,20.40
2022-12-23T13:03:23.069Z,21.48
2022-12-23T13:06:28.735Z,20.88
2022-12-23T13:09:40.397Z,22.45
2022-12-23T13:12:52.834Z,21.73
2022-12-23T13:15:25.783Z,24.05
2022-12-23T13:18:16.673Z,23.70
2022-12-23T13:21:00.871Z,21.77
2022-12-23T13:23:47.555Z,23.15
2022-12-23T13:26:51.948Z,24.13
2022-12-23T13:29:40.044Z,24.63
2022-12-23T13:32:19.951Z,22.85
2022-12-23T13:35:16.218Z,21.30
2022-12-23T13:38:18.049Z,21.45
2022-12-23T13:41:08.284Z,23.88
2022-12-23T13:43:47.584Z,22.85
2022-12-23T13:46:53.149Z,27.25
2022-12-23T13:49:39.780Z,23.58
2022-12-23T13:52:34.005Z,24.05
2022-12-23T13:55:42.003Z,25.17
2022-12-23T13:58:17.085Z,25.90
2022-12-23T14:00:44.181Z,24.40
2022-12-23T14:03:12.697Z,22.30
2022-12-23T14:05:41.605Z,22.42
2022-12-23T14:08:22.237Z,22.75
2022-12-23T14:11:10.204Z,20.83
2022-12-23T14:13:42.957Z,24.42
2022-12-23T14:16:31.466Z,22.25
2022-12-23T14:19:09.158Z,23.58
2022-12-23T14:21:58.770Z,20.20
2022-12-23T14:24:37.020Z,23.75
2022-12-23T14:27:43.602Z,24.95
2022-12-23T14:30:37.576Z,22.70
2022-12-23T14:33:23.083Z,23.52
2022-12-23T14:35:56.251Z,23.13
2022-12-23T14:38:28.192Z,21.00
2022-12-23T14:40:59.042Z,27.75
2022-12-23T14:43:51.062Z,27.08
2022-12-23T14:46:50.077Z,28.80
2022-12-23T14:49:43.025Z,25.75
2022-12-23T14:52:48.225Z,21.95
2022-12-23T14:55:32.322Z,23.13
2022-12-23T14:58:10.493Z,23.25
2022-12-23T15:00:47.056Z,25.75
2022-12-23T15:03:16.751Z,25.27
2022-12-23T15:05:43.556Z,24.17
2022-12-23T15:08:43.811Z,27.08
2022-12-23T15:11:21.056Z,22.98
2022-12-23T15:13:49.155Z,23.60
2022-12-23T15:16:17.812Z,22.98
2022-12-23T15:19:00.049Z,26.20
2022-12-23T15:21:34.096Z,22.92
2022-12-23T15:24:00.705Z,26.90
2022-12-23T15:26:30.462Z,22.42
2022-12-23T15:28:59.096Z,27.08
2022-12-23T15:31:32.145Z,31.63
2022-12-23T15:34:16.789Z,31.38
2022-12-23T15:36:44.826Z,31.67
2022-12-23T15:39:22.828Z,40.20
2022-12-23T15:41:49.372Z,30.08
2022-12-23T15:44:24.380Z,35.55
2022-12-23T15:46:52.101Z,30.15
2022-12-23T15:49:21.614Z,37.50
2022-12-23T15:52:12.388Z,31.17
2022-12-23T15:54:53.431Z,31.80
2022-12-23T15:57:23.127Z,31.52
2022-12-23T15:59:49.736Z,25.73
2022-12-23T16:05:38.230Z,29.13
2022-12-23T16:08:10.849Z,20.40
2022-12-23T16:10:37.678Z,30.73
2022-12-23T16:13:08.274Z,25.45
2022-12-23T16:15:34.760Z,23.77
2022-12-23T16:18:19.474Z,23.67
2022-12-23T16:20:53.444Z,44.03
2022-12-23T16:23:21.387Z,33.20
2022-12-23T16:25:50.918Z,26.80
2022-12-23T16:28:27.796Z,61.03
2022-12-23T16:30:56.581Z,206.15
2022-12-23T16:33:41.683Z,167.18
2022-12-23T16:36:35.901Z,135.68
2022-12-23T16:39:06.316Z,81.45
2022-12-23T16:41:33.424Z,102.45
2022-12-23T16:44:00.728Z,86.25
2022-12-23T16:46:27.952Z,82.45
2022-12-23T16:48:58.466Z,77.32
2022-12-23T16:51:26.114Z,267.83
2022-12-23T16:53:55.358Z,394.80
2022-12-23T16:56:35.812Z,71.15
2022-12-23T16:59:02.969Z,40.72
2022-12-23T17:01:36.334Z,36.80
2022-12-23T17:04:04.209Z,36.40
2022-12-23T17:06:30.725Z,39.80
2022-12-23T17:08:57.211Z,42.58
2022-12-23T17:11:35.979Z,36.38
2022-12-23T17:14:06.689Z,40.17
2022-12-23T17:16:35.815Z,30.35
2022-12-23T17:19:02.427Z,30.38
2022-12-23T17:21:40.227Z,31.15
2022-12-23T17:26:36.204Z,133.07
2022-12-23T17:29:04.153Z,46.58
2022-12-23T17:31:32.682Z,182.80
2022-12-23T17:33:59.350Z,52.60
2022-12-23T17:36:25.913Z,35.83
2022-12-23T17:38:52.435Z,42.80
2022-12-23T17:41:29.997Z,34.83
2022-12-23T17:43:57.316Z,30.23
2022-12-23T17:46:24.374Z,28.80
2022-12-23T17:48:50.913Z,29.85
2022-12-23T17:51:19.722Z,27.90
2022-12-23T17:53:49.250Z,33.00
2022-12-23T17:56:20.817Z,93.15
2022-12-23T17:58:49.172Z,72.38
2022-12-23T18:01:19.566Z,125.45
2022-12-23T18:03:46.261Z,47.00
2022-12-23T18:06:17.995Z,47.67
2022-12-23T18:08:45.152Z,49.08
2022-12-23T18:11:21.460Z,36.47
2022-12-23T18:13:50.214Z,42.75
2022-12-23T18:16:17.043Z,47.22
2022-12-23T18:18:46.659Z,113.07
2022-12-23T18:21:19.396Z,32.33
2022-12-23T18:23:46.071Z,35.90
2022-12-23T18:26:15.592Z,41.63
2022-12-23T18:28:43.350Z,36.85
2022-12-23T18:31:16.150Z,29.63
2022-12-23T18:33:42.822Z,28.42
2022-12-23T18:36:18.094Z,45.95
2022-12-23T18:38:44.907Z,80.20
2022-12-23T18:41:12.277Z,49.13
2022-12-23T18:43:38.841Z,28.80
2022-12-23T18:46:05.527Z,20.15
2022-12-23T18:48:32.300Z,23.17
2022-12-23T18:50:58.784Z,31.10
2022-12-23T18:53:25.582Z,38.60
2022-12-23T18:55:55.881Z,71.15
2022-12-23T18:58:22.462Z,56.47
2022-12-23T19:00:50.359Z,172.93
2022-12-23T19:03:43.199Z,82.35
2022-12-23T19:06:12.838Z,38.60
2022-12-23T19:08:40.375Z,41.53
2022-12-23T19:11:11.939Z,36.40
2022-12-23T19:13:38.636Z,33.85
2022-12-23T19:16:05.269Z,29.98
2022-12-23T19:18:32.992Z,38.60
2022-12-23T19:21:04.061Z,32.10
2022-12-23T19:23:32.009Z,44.13
2022-12-23T19:25:58.521Z,40.53
2022-12-23T19:28:25.047Z,37.90
2022-12-23T19:30:51.603Z,41.03
2022-12-23T19:33:18.280Z,51.03
2022-12-23T19:35:52.844Z,44.88
2022-12-23T19:38:19.295Z,43.13
2022-12-23T19:40:45.943Z,44.38
2022-12-23T19:43:12.562Z,46.35
2022-12-23T19:45:39.383Z,43.25
2022-12-23T19:48:06.434Z,65.00
2022-12-23T19:50:32.934Z,69.25
2022-12-23T19:52:59.393Z,70.03
2022-12-23T19:55:25.881Z,66.50
2022-12-23T19:57:52.432Z,71.47
2022-12-23T20:00:21.073Z,60.63
2022-12-23T20:02:47.666Z,74.18
2022-12-23T20:05:16.712Z,67.70
2022-12-23T20:07:43.188Z,57.33
2022-12-23T20:10:10.088Z,60.90
2022-12-23T20:12:36.673Z,65.57
2022-12-23T20:15:03.548Z,65.13
2022-12-23T20:17:30.077Z,66.55
2022-12-23T20:19:56.956Z,57.80
2022-12-23T20:22:23.759Z,70.32
2022-12-23T20:24:51.313Z,74.25
2022-12-23T20:27:22.683Z,75.53
2022-12-23T20:29:52.626Z,75.55
2022-12-23T20:32:19.428Z,72.38
2022-12-23T20:34:46.022Z,67.18
2022-12-23T20:37:12.526Z,70.53
2022-12-23T20:39:38.999Z,80.13
2022-12-23T20:42:05.483Z,67.45
2022-12-23T20:44:35.103Z,85.20
2022-12-23T20:47:03.172Z,79.00
2022-12-23T20:49:29.742Z,64.88
2022-12-23T20:51:56.323Z,73.75
2022-12-23T20:54:27.865Z,67.68
2022-12-23T20:56:56.541Z,88.03
2022-12-23T20:59:23.033Z,81.15
2022-12-23T21:01:49.689Z,68.85
2022-12-23T21:04:16.943Z,73.47
2022-12-23T21:06:44.274Z,76.88
2022-12-23T21:09:13.074Z,76.82
2022-12-23T21:11:46.342Z,78.25
2022-12-23T21:14:13.952Z,86.57
2022-12-23T21:16:41.314Z,80.70
2022-12-23T21:19:12.405Z,71.78
2022-12-23T21:21:38.939Z,95.72
2022-12-23T21:24:05.917Z,74.10
2022-12-23T21:26:34.276Z,79.03
2022-12-23T21:29:02.069Z,84.13
2022-12-23T21:31:30.446Z,83.25
2022-12-23T21:33:57.642Z,95.35
2022-12-23T21:36:31.065Z,64.68
2022-12-23T21:38:59.679Z,74.32
2022-12-23T21:41:29.588Z,67.57
2022-12-23T21:43:57.808Z,73.90
2022-12-23T21:46:24.796Z,53.85
2022-12-23T21:48:51.908Z,74.70
2022-12-23T21:51:24.276Z,58.90
2022-12-23T21:53:53.015Z,62.00
2022-12-23T21:56:24.350Z,59.97
2022-12-23T21:58:55.372Z,59.83
2022-12-23T22:01:21.925Z,61.40
2022-12-23T22:03:51.078Z,60.67
2022-12-23T22:06:32.182Z,49.78
2022-12-23T22:08:59.060Z,66.72
2022-12-23T22:11:31.387Z,52.50
2022-12-23T22:13:59.426Z,56.97
2022-12-23T22:16:28.586Z,55.28
2022-12-23T22:18:55.861Z,57.97
2022-12-23T22:21:23.942Z,47.80
2022-12-23T22:23:51.190Z,54.17
2022-12-23T22:26:24.582Z,40.72
2022-12-23T22:28:54.523Z,43.78
2022-12-23T22:31:27.184Z,40.15
2022-12-23T22:33:53.921Z,46.83
2022-12-23T22:36:20.748Z,43.67
2022-12-23T22:38:52.970Z,45.03
2022-12-23T22:41:19.600Z,39.15
2022-12-23T22:43:46.363Z,40.75
2022-12-23T22:46:13.538Z,40.38
2022-12-23T22:48:40.060Z,42.80
2022-12-23T22:51:10.621Z,44.63
2022-12-23T22:53:37.313Z,36.83
2022-12-23T22:56:05.253Z,37.15
2022-12-23T22:58:33.034Z,33.70
2022-12-23T23:01:00.009Z,37.55
2022-12-23T23:03:27.178Z,39.45
2022-12-23T23:06:07.192Z,41.08
2022-12-23T23:08:34.835Z,35.08
2022-12-23T23:11:04.536Z,33.97
2022-12-23T23:13:33.862Z,30.40
2022-12-23T23:16:01.257Z,31.23
2022-12-23T23:18:33.289Z,35.50
2022-12-23T23:20:59.928Z,38.05
2022-12-23T23:23:28.217Z,29.80
2022-12-23T23:25:54.728Z,29.08
2022-12-23T23:28:21.300Z,33.53
2022-12-23T23:30:47.889Z,30.90
2022-12-23T23:33:14.440Z,32.65
2022-12-23T23:35:41.083Z,32.53
2022-12-23T23:38:08.828Z,31.30
2022-12-23T23:40:35.357Z,26.02
2022-12-23T23:43:02.001Z,24.20
2022-12-23T23:45:28.698Z,25.30
2022-12-23T23:47:56.030Z,25.25
2022-12-23T23:50:22.812Z,25.38
2022-12-23T23:52:49.277Z,27.13
2022-12-23T23:55:15.928Z,26.48
2022-12-23T23:57:42.767Z,19.02
